sensor_id;sensor_type;location;lat;lon;timestamp;pressure;altitude;pressure_sealevel;temperature;humidity
13367;BME280;6752;52.612;13.630;2023-02-13T00:01:54;103104.52;;;7.49;100.00
13367;BME280;6752;52.612;13.630;2023-02-13T00:06:56;103098.31;;;7.48;100.00
13367;BME280;6752;52.612;13.630;2023-02-13T00:11:59;103074.75;;;7.38;100.00
13367;BME280;6752;52.612;13.630;2023-02-13T00:17:01;103081.36;;;7.26;100.00
13367;BME280;6752;52.612;13.630;2023-02-13T00:22:03;103086.81;;;7.35;100.00
13367;BME280;6752;52.612;13.630;2023-02-13T00:27:05;103084.89;;;7.41;100.00
13367;BME280;6752;52.612;13.630;2023-02-13T00:32:08;103082.25;;;7.36;100.00
13367;BME280;6752;52.612;13.630;2023-02-13T00:37:10;103068.66;;;7.21;100.00
13367;BME280;6752;52.612;13.630;2023-02-13T00:42:13;103074.25;;;7.39;100.00
13367;BME280;6752;52.612;13.630;2023-02-13T00:47:15;103076.79;;;7.26;100.00
13367;BME280;6752;52.612;13.630;2023-02-13T00:52:17;103069.58;;;7.21;100.00
13367;BME280;6752;52.612;13.630;2023-02-13T00:57:20;103065.44;;;7.22;100.00
13367;BME280;6752;52.612;13.630;2023-02-13T01:02:22;103065.37;;;7.22;100.00
13367;BME280;6752;52.612;13.630;2023-02-13T01:07:25;103070.22;;;7.24;100.00
13367;BME280;6752;52.612;13.630;2023-02-13T01:12:27;103071.72;;;7.13;100.00
13367;BME280;6752;52.612;13.630;2023-02-13T01:17:29;103072.54;;;7.08;100.00
13367;BME280;6752;52.612;13.630;2023-02-13T01:22:31;103072.97;;;7.08;100.00
13367;BME280;6752;52.612;13.630;2023-02-13T01:27:34;103067.61;;;7.03;100.00
13367;BME280;6752;52.612;13.630;2023-02-13T01:32:36;103075.67;;;6.99;100.00
13367;BME280;6752;52.612;13.630;2023-02-13T01:37:38;103065.89;;;6.92;100.00
13367;BME280;6752;52.612;13.630;2023-02-13T01:42:40;103060.54;;;6.96;100.00
13367;BME280;6752;52.612;13.630;2023-02-13T01:47:47;103056.83;;;6.97;100.00
13367;BME280;6752;52.612;13.630;2023-02-13T01:52:52;103064.53;;;6.87;100.00
13367;BME280;6752;52.612;13.630;2023-02-13T01:58:00;103054.40;;;6.94;100.00
13367;BME280;6752;52.612;13.630;2023-02-13T02:03:23;103058.00;;;6.84;100.00
13367;BME280;6752;52.612;13.630;2023-02-13T02:08:01;103052.50;;;6.85;100.00
13367;BME280;6752;52.612;13.630;2023-02-13T02:13:13;103056.48;;;6.76;100.00
13367;BME280;6752;52.612;13.630;2023-02-13T02:18:18;103062.62;;;6.78;100.00
13367;BME280;6752;52.612;13.630;2023-02-13T02:23:56;103064.40;;;6.74;100.00
13367;BME280;6752;52.612;13.630;2023-02-13T02:29:23;103068.47;;;6.74;100.00
13367;BME280;6752;52.612;13.630;2023-02-13T02:39:41;103081.02;;;6.70;100.00
13367;BME280;6752;52.612;13.630;2023-02-13T02:44:54;103074.30;;;6.64;100.00
13367;BME280;6752;52.612;13.630;2023-02-13T02:50:03;103077.58;;;6.68;100.00
13367;BME280;6752;52.612;13.630;2023-02-13T02:55:08;103074.53;;;6.61;100.00
13367;BME280;6752;52.612;13.630;2023-02-13T03:00:07;103074.53;;;6.61;100.00
13367;BME280;6752;52.612;13.630;2023-02-13T03:05:26;103060.13;;;6.61;100.00
13367;BME280;6752;52.612;13.630;2023-02-13T03:10:44;103061.23;;;6.64;100.00
13367;BME280;6752;52.612;13.630;2023-02-13T03:16:05;103060.27;;;6.59;100.00
13367;BME280;6752;52.612;13.630;2023-02-13T03:21:39;103057.41;;;6.56;100.00
13367;BME280;6752;52.612;13.630;2023-02-13T03:27:03;103066.23;;;6.48;100.00
13367;BME280;6752;52.612;13.630;2023-02-13T03:32:09;103060.23;;;6.45;100.00
13367;BME280;6752;52.612;13.630;2023-02-13T03:37:08;103057.08;;;6.40;100.00
13367;BME280;6752;52.612;13.630;2023-02-13T03:42:35;103060.87;;;6.48;100.00
13367;BME280;6752;52.612;13.630;2023-02-13T03:47:37;103060.14;;;6.41;100.00
13367;BME280;6752;52.612;13.630;2023-02-13T03:52:44;103054.73;;;6.41;100.00
13367;BME280;6752;52.612;13.630;2023-02-13T03:57:44;103046.17;;;6.30;100.00
13367;BME280;6752;52.612;13.630;2023-02-13T04:08:07;103035.48;;;6.33;100.00
13367;BME280;6752;52.612;13.630;2023-02-13T04:13:19;103031.93;;;6.48;100.00
13367;BME280;6752;52.612;13.630;2023-02-13T04:18:27;103022.23;;;6.50;100.00
13367;BME280;6752;52.612;13.630;2023-02-13T04:23:29;103021.30;;;6.46;100.00
13367;BME280;6752;52.612;13.630;2023-02-13T04:28:31;103026.38;;;6.54;100.00
13367;BME280;6752;52.612;13.630;2023-02-13T04:33:33;103029.16;;;6.54;100.00
13367;BME280;6752;52.612;13.630;2023-02-13T04:38:36;103011.62;;;6.58;100.00
13367;BME280;6752;52.612;13.630;2023-02-13T04:43:38;103012.19;;;6.52;100.00
13367;BME280;6752;52.612;13.630;2023-02-13T04:48:40;103009.61;;;6.45;100.00
13367;BME280;6752;52.612;13.630;2023-02-13T04:53:42;103009.95;;;6.41;100.00
13367;BME280;6752;52.612;13.630;2023-02-13T04:58:45;103018.02;;;6.47;100.00
13367;BME280;6752;52.612;13.630;2023-02-13T05:04:05;103014.97;;;6.51;100.00
13367;BME280;6752;52.612;13.630;2023-02-13T05:09:09;103021.75;;;6.56;100.00
13367;BME280;6752;52.612;13.630;2023-02-13T05:14:10;103019.87;;;6.46;100.00
13367;BME280;6752;52.612;13.630;2023-02-13T05:19:12;103023.16;;;6.45;100.00
13367;BME280;6752;52.612;13.630;2023-02-13T05:24:14;103017.88;;;6.49;100.00
13367;BME280;6752;52.612;13.630;2023-02-13T05:29:16;103019.68;;;6.54;100.00
13367;BME280;6752;52.612;13.630;2023-02-13T05:34:22;103021.82;;;6.55;100.00
13367;BME280;6752;52.612;13.630;2023-02-13T05:39:24;103014.48;;;6.56;100.00
13367;BME280;6752;52.612;13.630;2023-02-13T05:44:26;103029.17;;;6.58;100.00
13367;BME280;6752;52.612;13.630;2023-02-13T05:49:28;103022.03;;;6.53;100.00
13367;BME280;6752;52.612;13.630;2023-02-13T05:54:30;103031.70;;;6.45;100.00
13367;BME280;6752;52.612;13.630;2023-02-13T05:59:33;103037.91;;;6.42;100.00
13367;BME280;6752;52.612;13.630;2023-02-13T06:04:35;103044.81;;;6.40;100.00
13367;BME280;6752;52.612;13.630;2023-02-13T06:09:37;103051.53;;;6.46;100.00
13367;BME280;6752;52.612;13.630;2023-02-13T06:14:40;103052.39;;;6.46;100.00
13367;BME280;6752;52.612;13.630;2023-02-13T06:19:42;103060.23;;;6.45;100.00
13367;BME280;6752;52.612;13.630;2023-02-13T06:24:45;103061.66;;;6.49;100.00
13367;BME280;6752;52.612;13.630;2023-02-13T06:29:47;103054.83;;;6.50;100.00
13367;BME280;6752;52.612;13.630;2023-02-13T06:34:49;103059.80;;;6.44;100.00
13367;BME280;6752;52.612;13.630;2023-02-13T06:39:53;103065.13;;;6.40;100.00
13367;BME280;6752;52.612;13.630;2023-02-13T06:44:55;103060.28;;;6.39;100.00
13367;BME280;6752;52.612;13.630;2023-02-13T06:49:57;103070.64;;;6.34;100.00
13367;BME280;6752;52.612;13.630;2023-02-13T06:55:00;103068.63;;;6.31;100.00
13367;BME280;6752;52.612;13.630;2023-02-13T07:00:02;103076.40;;;6.30;100.00
13367;BME280;6752;52.612;13.630;2023-02-13T07:05:05;103087.97;;;6.37;100.00
13367;BME280;6752;52.612;13.630;2023-02-13T07:10:08;103084.47;;;6.46;100.00
13367;BME280;6752;52.612;13.630;2023-02-13T07:15:09;103087.63;;;6.51;100.00
13367;BME280;6752;52.612;13.630;2023-02-13T07:20:12;103091.56;;;6.53;100.00
13367;BME280;6752;52.612;13.630;2023-02-13T07:25:14;103095.00;;;6.60;100.00
13367;BME280;6752;52.612;13.630;2023-02-13T07:30:16;103097.50;;;6.62;100.00
13367;BME280;6752;52.612;13.630;2023-02-13T07:35:19;103099.48;;;6.66;100.00
13367;BME280;6752;52.612;13.630;2023-02-13T07:40:21;103102.98;;;6.72;100.00
13367;BME280;6752;52.612;13.630;2023-02-13T07:45:23;103100.14;;;6.73;100.00
13367;BME280;6752;52.612;13.630;2023-02-13T07:50:26;103106.78;;;6.75;100.00
13367;BME280;6752;52.612;13.630;2023-02-13T07:55:31;103096.20;;;6.87;100.00
13367;BME280;6752;52.612;13.630;2023-02-13T08:00:33;103100.77;;;6.86;100.00
13367;BME280;6752;52.612;13.630;2023-02-13T08:05:35;103109.21;;;6.98;100.00
13367;BME280;6752;52.612;13.630;2023-02-13T08:10:39;103104.78;;;6.92;100.00
13367;BME280;6752;52.612;13.630;2023-02-13T08:15:59;103102.41;;;6.88;100.00
13367;BME280;6752;52.612;13.630;2023-02-13T08:21:01;103105.20;;;6.92;100.00
13367;BME280;6752;52.612;13.630;2023-02-13T08:26:04;103100.64;;;6.93;100.00
13367;BME280;6752;52.612;13.630;2023-02-13T08:31:09;103101.72;;;7.01;100.00
13367;BME280;6752;52.612;13.630;2023-02-13T08:36:11;103103.48;;;7.11;100.00
13367;BME280;6752;52.612;13.630;2023-02-13T08:41:16;103102.98;;;7.12;100.00
13367;BME280;6752;52.612;13.630;2023-02-13T08:46:19;103102.77;;;7.14;100.00
13367;BME280;6752;52.612;13.630;2023-02-13T08:51:21;103091.71;;;7.21;100.00
13367;BME280;6752;52.612;13.630;2023-02-13T08:56:23;103101.64;;;7.26;100.00
13367;BME280;6752;52.612;13.630;2023-02-13T09:01:25;103102.28;;;7.24;100.00
13367;BME280;6752;52.612;13.630;2023-02-13T09:06:28;103106.53;;;7.37;100.00
13367;BME280;6752;52.612;13.630;2023-02-13T09:11:30;103113.52;;;7.45;100.00
13367;BME280;6752;52.612;13.630;2023-02-13T09:16:32;103112.38;;;7.57;100.00
13367;BME280;6752;52.612;13.630;2023-02-13T09:21:35;103112.83;;;7.62;100.00
13367;BME280;6752;52.612;13.630;2023-02-13T09:26:37;103111.97;;;7.66;100.00
13367;BME280;6752;52.612;13.630;2023-02-13T09:31:42;103123.55;;;7.68;100.00
13367;BME280;6752;52.612;13.630;2023-02-13T09:36:45;103120.82;;;7.73;100.00
13367;BME280;6752;52.612;13.630;2023-02-13T09:41:48;103116.95;;;7.76;100.00
13367;BME280;6752;52.612;13.630;2023-02-13T09:46:49;103122.63;;;7.83;100.00
13367;BME280;6752;52.612;13.630;2023-02-13T09:51:53;103115.68;;;7.89;100.00
13367;BME280;6752;52.612;13.630;2023-02-13T09:56:58;103116.73;;;7.97;100.00
13367;BME280;6752;52.612;13.630;2023-02-13T10:12:58;103116.89;;;7.76;100.00
13367;BME280;6752;52.612;13.630;2023-02-13T10:17:58;103116.39;;;7.77;100.00
13367;BME280;6752;52.612;13.630;2023-02-13T10:28:31;103119.39;;;7.93;100.00
13367;BME280;6752;52.612;13.630;2023-02-13T10:33:39;103119.39;;;7.93;100.00
13367;BME280;6752;52.612;13.630;2023-02-13T10:39:43;103114.94;;;8.02;100.00
13367;BME280;6752;52.612;13.630;2023-02-13T10:44:13;103111.07;;;8.04;100.00
13367;BME280;6752;52.612;13.630;2023-02-13T10:49:25;103109.45;;;7.98;100.00
13367;BME280;6752;52.612;13.630;2023-02-13T11:05:04;103088.82;;;8.19;100.00
13367;BME280;6752;52.612;13.630;2023-02-13T11:10:04;103085.38;;;8.22;100.00
13367;BME280;6752;52.612;13.630;2023-02-13T11:15:06;103083.02;;;8.23;100.00
13367;BME280;6752;52.612;13.630;2023-02-13T11:20:31;103086.20;;;8.04;100.00
13367;BME280;6752;52.612;13.630;2023-02-13T11:25:31;103077.64;;;7.94;100.00
13367;BME280;6752;52.612;13.630;2023-02-13T11:30:34;103083.16;;;7.93;100.00
13367;BME280;6752;52.612;13.630;2023-02-13T11:35:36;103076.64;;;7.95;100.00
13367;BME280;6752;52.612;13.630;2023-02-13T11:40:38;103071.21;;;7.95;100.00
13367;BME280;6752;52.612;13.630;2023-02-13T11:45:41;103061.03;;;8.12;100.00
13367;BME280;6752;52.612;13.630;2023-02-13T11:50:43;103056.98;;;8.07;100.00
13367;BME280;6752;52.612;13.630;2023-02-13T11:55:59;103048.62;;;8.23;100.00
13367;BME280;6752;52.612;13.630;2023-02-13T12:00:48;103044.32;;;8.25;100.00
13367;BME280;6752;52.612;13.630;2023-02-13T12:06:09;103047.84;;;8.22;100.00
13367;BME280;6752;52.612;13.630;2023-02-13T12:11:20;103046.91;;;8.22;100.00
13367;BME280;6752;52.612;13.630;2023-02-13T12:26:48;103054.46;;;8.28;100.00
13367;BME280;6752;52.612;13.630;2023-02-13T12:32:03;103057.13;;;8.05;100.00
13367;BME280;6752;52.612;13.630;2023-02-13T12:37:11;103052.46;;;8.02;100.00
13367;BME280;6752;52.612;13.630;2023-02-13T12:58:24;103044.97;;;8.00;100.00
13367;BME280;6752;52.612;13.630;2023-02-13T13:08:54;103052.58;;;7.87;100.00
13367;BME280;6752;52.612;13.630;2023-02-13T13:14:58;103051.23;;;7.82;100.00
13367;BME280;6752;52.612;13.630;2023-02-13T13:19:10;103048.08;;;7.86;100.00
13367;BME280;6752;52.612;13.630;2023-02-13T13:29:42;103056.11;;;7.64;100.00
13367;BME280;6752;52.612;13.630;2023-02-13T13:34:38;103072.88;;;7.49;100.00
13367;BME280;6752;52.612;13.630;2023-02-13T13:39:52;103059.60;;;7.46;100.00
13367;BME280;6752;52.612;13.630;2023-02-13T13:44:54;103053.88;;;7.49;100.00
13367;BME280;6752;52.612;13.630;2023-02-13T13:49:57;103051.81;;;7.51;100.00
13367;BME280;6752;52.612;13.630;2023-02-13T13:55:00;103040.76;;;7.59;100.00
13367;BME280;6752;52.612;13.630;2023-02-13T14:20:50;103016.62;;;7.41;100.00
13367;BME280;6752;52.612;13.630;2023-02-13T14:31:25;102993.83;;;7.28;100.00
13367;BME280;6752;52.612;13.630;2023-02-13T14:36:42;102995.32;;;7.32;100.00
13367;BME280;6752;52.612;13.630;2023-02-13T14:46:52;102995.69;;;7.28;100.00
13367;BME280;6752;52.612;13.630;2023-02-13T14:51:58;102999.26;;;7.23;100.00
13367;BME280;6752;52.612;13.630;2023-02-13T14:57:06;102996.91;;;7.20;100.00
13367;BME280;6752;52.612;13.630;2023-02-13T15:02:28;102989.91;;;7.17;100.00
13367;BME280;6752;52.612;13.630;2023-02-13T15:07:14;102969.35;;;7.19;100.00
13367;BME280;6752;52.612;13.630;2023-02-13T15:17:30;102967.42;;;7.21;100.00
13367;BME280;6752;52.612;13.630;2023-02-13T15:22:37;102961.21;;;7.19;100.00
13367;BME280;6752;52.612;13.630;2023-02-13T15:27:39;102963.08;;;7.14;100.00
13367;BME280;6752;52.612;13.630;2023-02-13T15:32:40;102966.15;;;7.10;100.00
13367;BME280;6752;52.612;13.630;2023-02-13T15:37:42;102958.44;;;7.11;100.00
13367;BME280;6752;52.612;13.630;2023-02-13T15:42:44;102964.77;;;7.01;100.00
13367;BME280;6752;52.612;13.630;2023-02-13T15:47:46;102973.13;;;6.98;100.00
13367;BME280;6752;52.612;13.630;2023-02-13T15:52:49;102960.49;;;6.98;100.00
13367;BME280;6752;52.612;13.630;2023-02-13T15:57:52;102957.50;;;6.96;100.00
13367;BME280;6752;52.612;13.630;2023-02-13T16:02:54;102966.92;;;6.87;100.00
13367;BME280;6752;52.612;13.630;2023-02-13T16:07:57;102970.91;;;6.93;100.00
13367;BME280;6752;52.612;13.630;2023-02-13T16:12:59;102960.68;;;6.81;100.00
13367;BME280;6752;52.612;13.630;2023-02-13T16:18:00;102961.89;;;6.78;100.00
13367;BME280;6752;52.612;13.630;2023-02-13T16:23:15;102970.09;;;6.82;100.00
13367;BME280;6752;52.612;13.630;2023-02-13T16:28:17;102971.30;;;6.69;100.00
13367;BME280;6752;52.612;13.630;2023-02-13T16:33:32;102984.15;;;6.77;100.00
13367;BME280;6752;52.612;13.630;2023-02-13T16:38:37;102996.70;;;6.78;100.00
13367;BME280;6752;52.612;13.630;2023-02-13T16:43:40;102993.41;;;6.65;100.00
13367;BME280;6752;52.612;13.630;2023-02-13T16:48:42;102994.34;;;6.74;100.00
13367;BME280;6752;52.612;13.630;2023-02-13T16:53:44;102992.56;;;6.69;100.00
13367;BME280;6752;52.612;13.630;2023-02-13T16:58:46;102992.94;;;6.59;100.00
13367;BME280;6752;52.612;13.630;2023-02-13T17:03:49;102986.64;;;6.65;100.00
13367;BME280;6752;52.612;13.630;2023-02-13T17:08:51;102991.06;;;6.66;100.00
13367;BME280;6752;52.612;13.630;2023-02-13T17:13:53;102996.08;;;6.60;100.00
13367;BME280;6752;52.612;13.630;2023-02-13T17:18:56;103000.33;;;6.63;100.00
13367;BME280;6752;52.612;13.630;2023-02-13T17:23:58;102997.14;;;6.53;100.00
13367;BME280;6752;52.612;13.630;2023-02-13T17:29:00;103002.50;;;6.59;100.00
13367;BME280;6752;52.612;13.630;2023-02-13T17:34:03;102994.64;;;6.51;100.00
13367;BME280;6752;52.612;13.630;2023-02-13T17:39:05;102998.34;;;6.50;100.00
13367;BME280;6752;52.612;13.630;2023-02-13T17:44:10;103004.85;;;6.58;100.00
13367;BME280;6752;52.612;13.630;2023-02-13T17:49:10;103003.64;;;6.56;100.00
13367;BME280;6752;52.612;13.630;2023-02-13T17:54:12;103011.47;;;6.50;100.00
13367;BME280;6752;52.612;13.630;2023-02-13T17:59:15;103016.54;;;6.53;100.00
13367;BME280;6752;52.612;13.630;2023-02-13T18:04:17;103021.08;;;6.43;100.00
13367;BME280;6752;52.612;13.630;2023-02-13T18:09:19;103013.24;;;6.45;100.00
13367;BME280;6752;52.612;13.630;2023-02-13T18:14:27;103000.47;;;6.41;100.00
13367;BME280;6752;52.612;13.630;2023-02-13T18:19:25;103008.25;;;6.45;100.00
13367;BME280;6752;52.612;13.630;2023-02-13T18:24:30;103003.91;;;6.33;100.00
13367;BME280;6752;52.612;13.630;2023-02-13T18:29:32;103002.98;;;6.33;100.00
13367;BME280;6752;52.612;13.630;2023-02-13T18:34:34;103017.65;;;6.26;100.00
13367;BME280;6752;52.612;13.630;2023-02-13T18:39:36;103022.84;;;6.23;100.00
13367;BME280;6752;52.612;13.630;2023-02-13T18:44:39;103027.33;;;6.24;100.00
13367;BME280;6752;52.612;13.630;2023-02-13T18:49:41;103031.84;;;6.29;100.00
13367;BME280;6752;52.612;13.630;2023-02-13T18:54:43;103026.39;;;6.19;100.00
13367;BME280;6752;52.612;13.630;2023-02-13T18:59:46;103011.92;;;6.19;100.00
13367;BME280;6752;52.612;13.630;2023-02-13T19:04:48;103013.66;;;6.25;100.00
13367;BME280;6752;52.612;13.630;2023-02-13T19:09:51;103012.37;;;6.24;100.00
13367;BME280;6752;52.612;13.630;2023-02-13T19:14:53;103015.42;;;6.21;100.00
13367;BME280;6752;52.612;13.630;2023-02-13T19:19:55;103019.57;;;6.14;100.00
13367;BME280;6752;52.612;13.630;2023-02-13T19:24:58;103009.28;;;6.08;100.00
13367;BME280;6752;52.612;13.630;2023-02-13T19:30:00;103019.91;;;6.10;100.00
13367;BME280;6752;52.612;13.630;2023-02-13T19:35:02;103018.11;;;6.05;100.00
13367;BME280;6752;52.612;13.630;2023-02-13T19:40:05;103024.23;;;6.03;100.00
13367;BME280;6752;52.612;13.630;2023-02-13T19:45:07;103023.64;;;5.99;100.00
13367;BME280;6752;52.612;13.630;2023-02-13T19:50:10;103036.48;;;6.02;100.00
13367;BME280;6752;52.612;13.630;2023-02-13T19:55:12;103035.26;;;6.00;100.00
13367;BME280;6752;52.612;13.630;2023-02-13T20:00:15;103037.13;;;5.89;100.00
13367;BME280;6752;52.612;13.630;2023-02-13T20:05:17;103033.90;;;5.90;100.00
13367;BME280;6752;52.612;13.630;2023-02-13T20:10:20;103035.11;;;5.91;100.00
13367;BME280;6752;52.612;13.630;2023-02-13T20:15:22;103046.18;;;5.88;100.00
13367;BME280;6752;52.612;13.630;2023-02-13T20:20:24;103040.27;;;5.89;100.00
13367;BME280;6752;52.612;13.630;2023-02-13T20:25:27;103055.98;;;5.90;100.00
13367;BME280;6752;52.612;13.630;2023-02-13T20:30:29;103055.12;;;5.90;100.00
13367;BME280;6752;52.612;13.630;2023-02-13T20:35:32;103057.27;;;5.85;100.00
13367;BME280;6752;52.612;13.630;2023-02-13T20:40:34;103061.00;;;5.89;100.00
13367;BME280;6752;52.612;13.630;2023-02-13T20:45:36;103060.61;;;5.83;100.00
13367;BME280;6752;52.612;13.630;2023-02-13T20:50:39;103075.23;;;5.86;100.00
13367;BME280;6752;52.612;13.630;2023-02-13T20:55:41;103083.95;;;5.79;100.00
13367;BME280;6752;52.612;13.630;2023-02-13T21:00:43;103088.38;;;5.80;100.00
13367;BME280;6752;52.612;13.630;2023-02-13T21:05:46;103096.96;;;5.75;100.00
13367;BME280;6752;52.612;13.630;2023-02-13T21:10:48;103088.81;;;5.70;100.00
13367;BME280;6752;52.612;13.630;2023-02-13T21:15:51;103089.83;;;5.74;100.00
13367;BME280;6752;52.612;13.630;2023-02-13T21:20:53;103097.75;;;5.76;100.00
13367;BME280;6752;52.612;13.630;2023-02-13T21:25:59;103097.09;;;5.74;100.00
13367;BME280;6752;52.612;13.630;2023-02-13T21:30:58;103100.27;;;5.68;100.00
13367;BME280;6752;52.612;13.630;2023-02-13T21:36:05;103087.69;;;5.67;100.00
13367;BME280;6752;52.612;13.630;2023-02-13T21:41:16;103092.94;;;5.69;100.00
13367;BME280;6752;52.612;13.630;2023-02-13T21:46:19;103094.02;;;5.67;100.00
13367;BME280;6752;52.612;13.630;2023-02-13T21:51:21;103088.55;;;5.68;100.00
13367;BME280;6752;52.612;13.630;2023-02-13T21:56:24;103092.24;;;5.67;100.00
13367;BME280;6752;52.612;13.630;2023-02-13T22:01:29;103085.45;;;5.62;100.00
13367;BME280;6752;52.612;13.630;2023-02-13T22:06:31;103085.18;;;5.54;100.00
13367;BME280;6752;52.612;13.630;2023-02-13T22:11:33;103089.63;;;5.60;100.00
13367;BME280;6752;52.612;13.630;2023-02-13T22:16:36;103094.87;;;5.57;100.00
13367;BME280;6752;52.612;13.630;2023-02-13T22:21:37;103093.53;;;5.57;100.00
13367;BME280;6752;52.612;13.630;2023-02-13T22:26:40;103102.53;;;5.52;100.00
13367;BME280;6752;52.612;13.630;2023-02-13T22:31:42;103104.81;;;5.52;100.00
13367;BME280;6752;52.612;13.630;2023-02-13T22:36:45;103101.84;;;5.55;100.00
13367;BME280;6752;52.612;13.630;2023-02-13T22:41:47;103105.73;;;5.51;100.00
13367;BME280;6752;52.612;13.630;2023-02-13T22:46:49;103112.19;;;5.44;100.00
13367;BME280;6752;52.612;13.630;2023-02-13T22:51:52;103105.49;;;5.43;100.00
13367;BME280;6752;52.612;13.630;2023-02-13T22:56:54;103106.69;;;5.56;100.00
13367;BME280;6752;52.612;13.630;2023-02-13T23:01:56;103106.61;;;5.41;100.00
13367;BME280;6752;52.612;13.630;2023-02-13T23:06:59;103110.05;;;5.27;100.00
13367;BME280;6752;52.612;13.630;2023-02-13T23:12:01;103104.90;;;5.40;100.00
13367;BME280;6752;52.612;13.630;2023-02-13T23:17:22;103109.84;;;5.35;100.00
13367;BME280;6752;52.612;13.630;2023-02-13T23:22:42;103102.28;;;5.33;100.00
13367;BME280;6752;52.612;13.630;2023-02-13T23:27:44;103107.75;;;5.33;100.00
13367;BME280;6752;52.612;13.630;2023-02-13T23:32:47;103108.61;;;5.33;100.00
13367;BME280;6752;52.612;13.630;2023-02-13T23:37:49;103108.52;;;5.18;100.00
13367;BME280;6752;52.612;13.630;2023-02-13T23:42:51;103105.38;;;5.29;100.00
13367;BME280;6752;52.612;13.630;2023-02-13T23:47:57;103107.78;;;5.27;100.00
13367;BME280;6752;52.612;13.630;2023-02-13T23:52:59;103105.01;;;5.28;100.00
13367;BME280;6752;52.612;13.630;2023-02-13T23:58:01;103111.86;;;5.21;100.00
